createdAt,value
2023-06-22T00:01:21.104Z,23.10
2023-06-22T00:03:48.033Z,23.20
2023-06-22T00:06:14.999Z,23.10
2023-06-22T00:08:41.768Z,23.10
2023-06-22T00:11:08.542Z,23.10
2023-06-22T00:13:35.363Z,23.00
2023-06-22T00:16:02.280Z,23.00
2023-06-22T00:18:29.276Z,23.00
2023-06-22T00:21:00.299Z,22.80
2023-06-22T00:23:27.984Z,22.70
2023-06-22T00:25:54.884Z,22.70
2023-06-22T00:28:21.789Z,22.70
2023-06-22T00:30:50.482Z,22.80
2023-06-22T00:33:18.872Z,22.80
2023-06-22T00:35:45.650Z,22.80
2023-06-22T00:38:12.664Z,22.80
2023-06-22T00:40:39.628Z,22.70
2023-06-22T00:43:07.345Z,22.70
2023-06-22T00:45:34.215Z,22.70
2023-06-22T00:48:01.684Z,22.60
2023-06-22T00:50:34.326Z,22.60
2023-06-22T00:53:09.638Z,22.60
2023-06-22T00:55:38.433Z,22.60
2023-06-22T00:58:08.981Z,22.60
2023-06-22T01:00:35.719Z,22.60
2023-06-22T01:03:03.967Z,22.60
2023-06-22T01:05:32.825Z,22.60
2023-06-22T01:08:07.152Z,22.60
2023-06-22T01:10:47.111Z,22.60
2023-06-22T01:13:30.355Z,22.60
2023-06-22T01:16:07.869Z,22.50
2023-06-22T01:18:37.936Z,22.40
2023-06-22T01:21:10.647Z,22.30
2023-06-22T01:24:18.543Z,22.30
2023-06-22T01:27:01.478Z,22.30
2023-06-22T01:29:30.068Z,22.40
2023-06-22T01:31:58.530Z,22.50
2023-06-22T01:34:25.900Z,22.70
2023-06-22T01:36:53.989Z,22.80
2023-06-22T01:39:22.112Z,22.90
2023-06-22T01:41:50.173Z,22.90
2023-06-22T01:44:17.745Z,22.90
2023-06-22T01:46:45.167Z,23.00
2023-06-22T01:49:12.188Z,22.90
2023-06-22T01:51:38.989Z,22.90
2023-06-22T01:54:08.000Z,22.80
2023-06-22T01:56:34.917Z,22.90
2023-06-22T01:59:22.828Z,23.00
2023-06-22T02:02:01.363Z,22.90
2023-06-22T02:04:43.589Z,22.90
2023-06-22T02:07:17.841Z,22.80
2023-06-22T02:09:48.088Z,22.80
2023-06-22T02:12:17.972Z,22.70
2023-06-22T02:14:47.472Z,22.70
2023-06-22T02:17:14.506Z,22.70
2023-06-22T02:19:44.429Z,22.80
2023-06-22T02:22:11.154Z,22.80
2023-06-22T02:24:38.001Z,22.80
2023-06-22T02:27:06.971Z,22.80
2023-06-22T02:29:34.129Z,22.80
2023-06-22T02:32:02.941Z,22.80
2023-06-22T02:34:29.697Z,22.80
2023-06-22T02:36:56.486Z,22.80
2023-06-22T02:39:24.806Z,22.80
2023-06-22T02:41:53.532Z,22.70
2023-06-22T02:44:21.222Z,22.70
2023-06-22T02:46:49.345Z,22.70
2023-06-22T02:49:17.075Z,22.70
2023-06-22T02:51:47.557Z,22.70
2023-06-22T02:54:17.526Z,22.70
2023-06-22T02:56:46.109Z,22.70
2023-06-22T02:59:13.097Z,22.70
2023-06-22T03:01:41.336Z,22.70
2023-06-22T03:04:19.649Z,22.70
2023-06-22T03:06:52.408Z,22.70
2023-06-22T03:09:19.546Z,22.70
2023-06-22T03:11:46.275Z,22.70
2023-06-22T03:14:13.118Z,22.70
2023-06-22T03:16:41.553Z,22.70
2023-06-22T03:19:08.270Z,22.70
2023-06-22T03:21:34.994Z,22.60
2023-06-22T03:24:01.803Z,22.60
2023-06-22T03:26:28.524Z,22.60
2023-06-22T03:28:55.400Z,22.60
2023-06-22T03:31:22.935Z,22.60
2023-06-22T03:33:51.005Z,22.60
2023-06-22T03:36:21.798Z,22.60
2023-06-22T03:38:50.139Z,22.60
2023-06-22T03:41:17.512Z,22.60
2023-06-22T03:43:44.523Z,22.60
2023-06-22T03:46:11.825Z,22.60
2023-06-22T03:48:39.074Z,22.60
2023-06-22T03:51:05.893Z,22.60
2023-06-22T03:53:32.627Z,22.60
2023-06-22T03:55:59.295Z,22.60
2023-06-22T03:58:26.038Z,22.60
2023-06-22T04:00:53.939Z,22.70
2023-06-22T04:03:21.531Z,22.70
2023-06-22T04:05:49.473Z,22.70
2023-06-22T04:08:16.792Z,22.70
2023-06-22T04:10:43.642Z,22.70
2023-06-22T04:13:10.526Z,22.70
2023-06-22T04:15:37.355Z,22.60
2023-06-22T04:18:04.215Z,22.60
2023-06-22T04:20:33.393Z,22.60
2023-06-22T04:23:00.590Z,22.60
2023-06-22T04:25:27.383Z,22.60
2023-06-22T04:27:54.310Z,22.60
2023-06-22T04:30:21.147Z,22.60
2023-06-22T04:32:57.090Z,22.60
2023-06-22T04:35:26.972Z,22.60
2023-06-22T04:37:55.929Z,22.60
2023-06-22T04:40:24.157Z,22.60
2023-06-22T04:42:54.314Z,22.60
2023-06-22T04:45:22.196Z,22.60
2023-06-22T04:47:49.499Z,22.60
2023-06-22T04:50:16.483Z,22.60
2023-06-22T04:52:43.327Z,22.60
2023-06-22T04:55:10.236Z,22.50
2023-06-22T04:57:40.258Z,22.60
2023-06-22T05:00:13.803Z,22.50
2023-06-22T05:02:40.949Z,22.50
2023-06-22T05:05:08.596Z,22.50
2023-06-22T05:07:35.749Z,22.60
2023-06-22T05:10:03.879Z,22.60
2023-06-22T05:12:31.288Z,22.60
2023-06-22T05:14:58.620Z,22.60
2023-06-22T05:17:26.259Z,22.70
2023-06-22T05:19:53.145Z,22.70
2023-06-22T05:22:20.350Z,22.80
2023-06-22T05:24:47.807Z,22.90
2023-06-22T05:27:15.108Z,22.90
2023-06-22T05:29:41.908Z,23.00
2023-06-22T05:32:08.876Z,23.00
2023-06-22T05:34:35.647Z,23.00
2023-06-22T05:37:03.430Z,23.00
2023-06-22T05:39:30.226Z,23.00
2023-06-22T05:41:56.927Z,23.00
2023-06-22T05:44:23.643Z,23.10
2023-06-22T05:46:50.937Z,23.10
2023-06-22T05:49:17.892Z,23.10
2023-06-22T05:51:44.712Z,23.10
2023-06-22T05:54:11.563Z,23.20
2023-06-22T05:56:38.349Z,23.20
2023-06-22T05:59:05.396Z,23.20
2023-06-22T06:01:35.934Z,23.20
2023-06-22T06:04:05.180Z,23.20
2023-06-22T06:06:32.624Z,23.20
2023-06-22T06:09:00.531Z,23.20
2023-06-22T06:11:27.516Z,23.30
2023-06-22T06:13:54.337Z,23.30
2023-06-22T06:16:21.154Z,23.30
2023-06-22T06:18:49.575Z,23.30
2023-06-22T06:21:16.432Z,23.30
2023-06-22T06:23:43.300Z,23.30
2023-06-22T06:26:10.489Z,23.30
2023-06-22T06:28:37.265Z,23.40
2023-06-22T06:31:08.117Z,23.40
2023-06-22T06:33:34.946Z,23.40
2023-06-22T06:36:04.292Z,23.40
2023-06-22T06:38:31.846Z,23.40
2023-06-22T06:40:59.445Z,23.50
2023-06-22T06:43:26.593Z,23.50
2023-06-22T06:45:53.304Z,23.50
2023-06-22T06:48:20.045Z,23.50
2023-06-22T06:50:47.102Z,23.50
2023-06-22T06:53:13.972Z,23.50
2023-06-22T06:55:40.750Z,23.60
2023-06-22T06:58:09.173Z,23.60
2023-06-22T07:00:36.888Z,23.60
2023-06-22T07:03:03.763Z,23.60
2023-06-22T07:05:30.649Z,23.60
2023-06-22T07:07:57.541Z,23.60
2023-06-22T07:10:24.495Z,23.60
2023-06-22T07:12:51.209Z,23.70
2023-06-22T07:15:18.177Z,23.70
2023-06-22T07:17:45.050Z,23.70
2023-06-22T07:20:15.360Z,23.70
2023-06-22T07:22:45.878Z,23.70
2023-06-22T07:25:15.722Z,23.70
2023-06-22T07:28:04.402Z,23.70
2023-06-22T07:30:32.452Z,23.70
2023-06-22T07:33:04.198Z,23.70
2023-06-22T07:35:31.813Z,23.80
2023-06-22T07:37:58.537Z,23.80
2023-06-22T07:40:25.303Z,23.80
2023-06-22T07:42:53.412Z,23.80
2023-06-22T07:45:20.510Z,23.80
2023-06-22T07:47:47.279Z,23.80
2023-06-22T07:50:14.186Z,23.80
2023-06-22T07:52:40.868Z,23.90
2023-06-22T07:55:08.017Z,23.90
2023-06-22T07:57:35.249Z,23.90
2023-06-22T08:00:05.609Z,23.90
2023-06-22T08:02:39.723Z,23.90
2023-06-22T08:05:19.917Z,23.90
2023-06-22T08:07:49.041Z,23.90
2023-06-22T08:10:16.485Z,23.90
2023-06-22T08:12:43.552Z,23.90
2023-06-22T08:15:10.991Z,23.90
2023-06-22T08:17:39.563Z,24.00
2023-06-22T08:20:10.821Z,24.00
2023-06-22T08:22:37.861Z,24.00
2023-06-22T08:25:05.477Z,24.00
2023-06-22T08:27:33.043Z,24.00
2023-06-22T08:30:01.144Z,24.00
2023-06-22T08:32:31.325Z,24.00
2023-06-22T08:34:58.640Z,24.00
2023-06-22T08:37:31.716Z,24.00
2023-06-22T08:40:00.321Z,24.00
2023-06-22T08:42:27.199Z,24.00
2023-06-22T08:44:54.783Z,24.10
2023-06-22T08:47:22.422Z,24.10
2023-06-22T08:49:49.476Z,24.10
2023-06-22T08:52:16.358Z,24.10
2023-06-22T08:54:43.050Z,24.10
2023-06-22T08:57:09.804Z,24.10
2023-06-22T08:59:36.503Z,24.10
2023-06-22T09:02:03.275Z,24.10
2023-06-22T09:04:30.323Z,24.10
2023-06-22T09:06:57.124Z,24.10
2023-06-22T09:09:23.851Z,24.10
2023-06-22T09:11:50.653Z,24.10
2023-06-22T09:14:17.706Z,24.20
2023-06-22T09:16:44.451Z,24.20
2023-06-22T09:19:11.275Z,24.20
2023-06-22T09:21:38.039Z,24.20
2023-06-22T09:24:05.307Z,24.30
2023-06-22T09:26:32.048Z,24.30
2023-06-22T09:28:59.138Z,24.30
2023-06-22T09:31:28.864Z,24.30
2023-06-22T09:33:56.077Z,24.30
2023-06-22T09:36:22.921Z,24.30
2023-06-22T09:38:56.257Z,24.30
2023-06-22T09:41:23.921Z,24.30
2023-06-22T09:43:50.808Z,24.30
2023-06-22T09:46:18.237Z,24.30
2023-06-22T09:48:45.080Z,24.30
2023-06-22T09:51:12.502Z,24.30
2023-06-22T09:53:39.308Z,24.30
2023-06-22T09:56:07.443Z,24.30
2023-06-22T09:58:34.304Z,24.30
2023-06-22T10:01:01.066Z,24.30
2023-06-22T10:03:27.919Z,24.30
2023-06-22T10:05:54.742Z,24.30
2023-06-22T10:08:21.642Z,24.30
2023-06-22T10:10:48.365Z,24.30
2023-06-22T10:13:15.960Z,24.40
2023-06-22T10:15:43.665Z,24.40
2023-06-22T10:18:10.617Z,24.40
2023-06-22T10:20:37.624Z,24.40
2023-06-22T10:23:04.360Z,24.40
2023-06-22T10:25:31.392Z,24.40
2023-06-22T10:27:58.415Z,24.40
2023-06-22T10:30:25.288Z,24.40
2023-06-22T10:32:52.138Z,24.40
2023-06-22T10:35:18.942Z,24.50
2023-06-22T10:37:46.746Z,24.50
2023-06-22T10:40:19.842Z,24.50
2023-06-22T10:42:46.538Z,24.50
2023-06-22T10:45:13.386Z,24.50
2023-06-22T10:47:40.180Z,24.50
2023-06-22T10:50:07.553Z,24.50
2023-06-22T10:52:34.668Z,24.50
2023-06-22T10:55:01.813Z,24.60
2023-06-22T10:57:28.579Z,24.60
2023-06-22T10:59:55.271Z,24.60
2023-06-22T11:02:22.087Z,24.60
2023-06-22T11:04:48.859Z,24.60
2023-06-22T11:07:16.917Z,24.70
2023-06-22T11:09:46.639Z,24.70
2023-06-22T11:12:13.398Z,24.70
2023-06-22T11:14:40.712Z,24.70
2023-06-22T11:17:07.656Z,24.70
2023-06-22T11:19:34.460Z,24.70
2023-06-22T11:22:01.288Z,24.70
2023-06-22T11:24:27.956Z,24.70
2023-06-22T11:26:54.736Z,24.70
2023-06-22T11:29:32.668Z,24.70
2023-06-22T11:32:04.266Z,24.70
2023-06-22T11:34:31.002Z,24.70
2023-06-22T11:36:57.715Z,24.70
2023-06-22T11:39:33.351Z,24.80
2023-06-22T11:42:08.264Z,24.80
2023-06-22T11:44:35.039Z,24.80
2023-06-22T11:47:02.179Z,24.80
2023-06-22T11:49:28.914Z,24.80
2023-06-22T11:51:55.696Z,24.80
2023-06-22T11:54:22.729Z,24.80
2023-06-22T11:56:49.500Z,24.80
2023-06-22T11:59:16.198Z,24.80
2023-06-22T12:01:42.936Z,24.80
2023-06-22T12:04:12.303Z,24.80
2023-06-22T12:06:42.815Z,24.80
2023-06-22T12:09:10.318Z,24.90
2023-06-22T12:11:37.082Z,24.90
2023-06-22T12:14:03.914Z,24.90
2023-06-22T12:16:30.724Z,24.90
2023-06-22T12:18:57.416Z,24.90
2023-06-22T12:21:24.213Z,24.90
2023-06-22T12:23:50.971Z,24.90
2023-06-22T12:26:17.855Z,24.90
2023-06-22T12:28:44.594Z,25.00
2023-06-22T12:31:11.421Z,24.90
2023-06-22T12:33:38.226Z,24.90
2023-06-22T12:36:06.053Z,25.00
2023-06-22T12:38:32.861Z,25.00
2023-06-22T12:40:59.630Z,25.00
2023-06-22T12:43:26.351Z,25.00
2023-06-22T12:45:54.545Z,25.00
2023-06-22T12:48:22.499Z,25.00
2023-06-22T12:50:49.255Z,25.00
2023-06-22T12:53:16.042Z,25.00
2023-06-22T12:55:42.729Z,25.00
2023-06-22T12:58:09.452Z,25.00
2023-06-22T13:00:36.226Z,25.00
2023-06-22T13:03:03.227Z,25.00
2023-06-22T13:05:30.093Z,25.00
2023-06-22T13:07:56.980Z,25.00
2023-06-22T13:10:23.747Z,25.00
2023-06-22T13:12:50.645Z,25.00
2023-06-22T13:15:17.426Z,25.00
2023-06-22T13:17:44.313Z,25.00
2023-06-22T13:20:11.661Z,25.00
2023-06-22T13:22:41.457Z,25.10
2023-06-22T13:25:13.084Z,25.00
2023-06-22T13:27:41.400Z,25.10
2023-06-22T13:30:11.383Z,25.10
2023-06-22T13:32:42.961Z,25.10
2023-06-22T13:35:10.994Z,25.10
2023-06-22T13:37:38.193Z,25.10
2023-06-22T13:40:07.705Z,25.20
2023-06-22T13:42:34.661Z,25.20
2023-06-22T13:45:01.564Z,25.20
2023-06-22T13:47:30.708Z,25.10
2023-06-22T13:49:58.773Z,25.10
2023-06-22T13:52:25.616Z,25.10
2023-06-22T13:54:52.383Z,25.00
2023-06-22T13:57:19.210Z,25.00
2023-06-22T13:59:46.000Z,25.00
2023-06-22T14:02:12.791Z,25.00
2023-06-22T14:04:39.548Z,25.00
2023-06-22T14:07:06.441Z,25.00
2023-06-22T14:09:33.348Z,25.00
2023-06-22T14:12:04.808Z,25.00
2023-06-22T14:14:32.211Z,25.00
2023-06-22T14:16:58.967Z,25.00
2023-06-22T14:19:25.820Z,25.10
2023-06-22T14:21:52.579Z,25.00
2023-06-22T14:24:19.806Z,24.90
2023-06-22T14:26:48.432Z,24.80
2023-06-22T14:29:15.278Z,24.80
2023-06-22T14:31:42.056Z,24.80
2023-06-22T14:34:08.782Z,24.80
2023-06-22T14:36:35.466Z,24.90
2023-06-22T14:39:02.215Z,24.90
2023-06-22T14:41:28.968Z,24.90
2023-06-22T14:43:55.895Z,24.80
2023-06-22T14:46:22.707Z,24.80
2023-06-22T14:48:49.507Z,24.80
2023-06-22T14:51:17.880Z,24.80
2023-06-22T14:53:46.740Z,24.90
2023-06-22T14:56:15.565Z,24.80
2023-06-22T14:58:46.436Z,24.80
2023-06-22T15:01:13.613Z,24.80
2023-06-22T15:03:40.451Z,24.80
2023-06-22T15:06:08.365Z,24.80
2023-06-22T15:08:35.125Z,24.90
2023-06-22T15:11:02.888Z,24.90
2023-06-22T15:13:33.149Z,24.80
2023-06-22T15:15:59.874Z,24.80
2023-06-22T15:18:27.348Z,24.90
2023-06-22T15:20:54.480Z,24.80
2023-06-22T15:23:21.653Z,24.80
2023-06-22T15:25:48.397Z,24.80
2023-06-22T15:28:15.412Z,24.90
2023-06-22T15:30:42.356Z,24.90
2023-06-22T15:33:09.111Z,24.90
2023-06-22T15:35:35.852Z,24.90
2023-06-22T15:38:02.942Z,24.90
2023-06-22T15:40:29.991Z,24.90
2023-06-22T15:42:57.064Z,24.90
2023-06-22T15:45:23.733Z,24.90
2023-06-22T15:47:50.580Z,24.90
2023-06-22T15:50:17.483Z,24.90
2023-06-22T15:52:48.828Z,24.90
2023-06-22T15:55:16.090Z,25.00
2023-06-22T15:57:47.980Z,25.10
2023-06-22T16:00:18.793Z,25.00
2023-06-22T16:02:46.975Z,25.10
2023-06-22T16:05:14.982Z,25.20
2023-06-22T16:07:41.837Z,25.20
2023-06-22T16:10:09.184Z,25.20
2023-06-22T16:12:36.670Z,25.10
2023-06-22T16:15:04.784Z,25.10
2023-06-22T16:17:31.754Z,25.10
2023-06-22T16:20:00.421Z,25.20
2023-06-22T16:22:27.941Z,25.20
2023-06-22T16:24:56.923Z,25.10
2023-06-22T16:27:25.419Z,25.10
2023-06-22T16:29:52.375Z,25.10
2023-06-22T16:32:19.190Z,25.10
2023-06-22T16:34:46.671Z,25.10
2023-06-22T16:37:14.289Z,25.10
2023-06-22T16:39:41.208Z,25.10
2023-06-22T16:42:08.329Z,25.10
2023-06-22T16:44:35.780Z,25.10
2023-06-22T16:47:03.447Z,25.20
2023-06-22T16:49:30.401Z,25.20
2023-06-22T16:51:57.122Z,25.20
2023-06-22T16:54:25.123Z,25.20
2023-06-22T16:56:52.342Z,25.20
2023-06-22T16:59:19.261Z,25.20
2023-06-22T17:01:52.724Z,25.20
2023-06-22T17:04:23.774Z,25.20
2023-06-22T17:06:58.770Z,25.20
2023-06-22T17:09:27.585Z,25.20
2023-06-22T17:11:55.104Z,25.20
2023-06-22T17:14:22.867Z,25.20
2023-06-22T17:16:50.362Z,25.20
2023-06-22T17:19:17.470Z,25.20
2023-06-22T17:21:47.734Z,25.20
2023-06-22T17:24:18.214Z,25.20
2023-06-22T17:26:49.422Z,25.30
2023-06-22T17:29:16.260Z,25.30
2023-06-22T17:31:50.573Z,25.30
2023-06-22T17:34:22.116Z,25.30
2023-06-22T17:36:51.156Z,25.30
2023-06-22T17:39:23.074Z,25.20
2023-06-22T17:41:51.464Z,25.20
2023-06-22T17:44:23.866Z,25.20
2023-06-22T17:47:00.412Z,25.20
2023-06-22T17:49:29.247Z,25.20
2023-06-22T17:51:57.733Z,25.20
2023-06-22T17:54:31.252Z,25.20
2023-06-22T17:57:17.628Z,25.20
2023-06-22T17:59:51.845Z,25.20
2023-06-22T18:02:25.244Z,25.20
2023-06-22T18:04:57.240Z,25.20
2023-06-22T18:07:27.127Z,25.20
2023-06-22T18:09:54.115Z,25.20
2023-06-22T18:12:21.524Z,25.20
2023-06-22T18:14:49.602Z,25.20
2023-06-22T18:17:17.274Z,25.20
2023-06-22T18:19:47.492Z,25.20
2023-06-22T18:22:14.917Z,25.20
2023-06-22T18:24:42.530Z,25.20
2023-06-22T18:27:11.973Z,25.30
2023-06-22T18:29:40.306Z,25.30
2023-06-22T18:32:07.400Z,25.40
2023-06-22T18:34:34.633Z,25.60
2023-06-22T18:37:04.536Z,25.60
2023-06-22T18:39:33.370Z,25.70
2023-06-22T18:42:03.566Z,25.80
2023-06-22T18:44:33.856Z,25.80
2023-06-22T18:47:06.361Z,25.90
2023-06-22T18:49:53.328Z,25.90
2023-06-22T18:52:27.253Z,26.00
2023-06-22T18:54:55.973Z,26.10
2023-06-22T18:57:26.077Z,26.00
2023-06-22T19:00:10.471Z,26.00
2023-06-22T19:02:48.049Z,26.00
2023-06-22T19:05:15.150Z,26.00
2023-06-22T19:07:54.434Z,26.10
2023-06-22T19:10:33.395Z,26.10
2023-06-22T19:13:27.128Z,26.10
2023-06-22T19:16:03.551Z,26.10
2023-06-22T19:18:34.686Z,26.10
2023-06-22T19:21:02.619Z,26.10
2023-06-22T19:23:30.489Z,26.10
2023-06-22T19:25:59.240Z,26.00
2023-06-22T19:28:27.264Z,26.10
2023-06-22T19:30:55.856Z,26.00
2023-06-22T19:33:23.804Z,26.10
2023-06-22T19:35:51.494Z,26.10
2023-06-22T19:38:19.395Z,26.10
2023-06-22T19:40:47.453Z,26.10
2023-06-22T19:43:16.018Z,26.10
2023-06-22T19:45:43.965Z,25.60
2023-06-22T19:48:12.582Z,24.80
2023-06-22T19:50:41.941Z,24.40
2023-06-22T19:53:10.767Z,24.10
2023-06-22T19:55:42.986Z,23.90
2023-06-22T19:58:14.349Z,23.90
2023-06-22T20:00:45.287Z,24.00
2023-06-22T20:03:18.265Z,24.00
2023-06-22T20:05:48.576Z,24.10
2023-06-22T20:08:17.176Z,24.20
2023-06-22T20:10:44.874Z,24.20
2023-06-22T20:13:25.763Z,24.20
2023-06-22T20:15:52.576Z,24.30
2023-06-22T20:18:22.934Z,24.20
2023-06-22T20:20:49.752Z,24.20
2023-06-22T20:23:21.908Z,24.10
2023-06-22T20:25:52.300Z,24.20
2023-06-22T20:28:19.251Z,24.20
2023-06-22T20:31:06.270Z,24.30
2023-06-22T20:33:33.949Z,24.30
2023-06-22T20:36:01.443Z,24.40
2023-06-22T20:38:29.283Z,24.40
2023-06-22T20:40:56.667Z,24.50
2023-06-22T20:43:24.862Z,24.40
2023-06-22T20:45:59.794Z,24.40
2023-06-22T20:48:38.999Z,24.40
2023-06-22T20:51:07.383Z,24.30
2023-06-22T20:53:34.369Z,24.30
2023-06-22T20:56:01.322Z,24.20
2023-06-22T20:58:28.049Z,24.20
2023-06-22T21:00:56.056Z,24.20
2023-06-22T21:03:23.077Z,24.10
2023-06-22T21:05:50.118Z,24.00
2023-06-22T21:08:17.234Z,24.20
2023-06-22T21:10:44.377Z,24.30
2023-06-22T21:13:11.474Z,24.10
2023-06-22T21:15:38.232Z,24.10
2023-06-22T21:18:04.985Z,24.10
2023-06-22T21:20:31.717Z,24.00
2023-06-22T21:22:58.494Z,23.80
2023-06-22T21:25:25.194Z,23.80
2023-06-22T21:27:52.154Z,23.80
2023-06-22T21:30:18.892Z,23.70
2023-06-22T21:32:46.054Z,23.70
2023-06-22T21:35:13.837Z,23.60
2023-06-22T21:37:42.709Z,23.50
2023-06-22T21:40:10.206Z,23.50
2023-06-22T21:42:37.010Z,23.40
2023-06-22T21:45:03.999Z,23.40
2023-06-22T21:47:30.799Z,23.30
2023-06-22T21:49:59.478Z,23.40
2023-06-22T21:52:30.236Z,23.30
2023-06-22T21:54:57.553Z,23.30
2023-06-22T21:57:27.579Z,23.20
2023-06-22T21:59:55.418Z,23.20
2023-06-22T22:02:23.174Z,23.20
2023-06-22T22:04:52.654Z,23.10
2023-06-22T22:07:20.406Z,23.10
2023-06-22T22:09:47.334Z,23.10
2023-06-22T22:12:14.078Z,23.10
2023-06-22T22:14:42.078Z,23.10
2023-06-22T22:17:09.626Z,23.10
2023-06-22T22:19:36.561Z,23.10
2023-06-22T22:22:04.648Z,23.00
2023-06-22T22:24:31.594Z,23.00
2023-06-22T22:26:58.408Z,23.00
2023-06-22T22:29:28.694Z,22.90
2023-06-22T22:31:55.846Z,22.90
2023-06-22T22:34:22.785Z,22.90
2023-06-22T22:36:49.606Z,22.90
2023-06-22T22:39:35.952Z,22.90
2023-06-22T22:42:03.126Z,22.90
2023-06-22T22:44:29.890Z,22.80
2023-06-22T22:46:57.938Z,22.80
2023-06-22T22:49:24.788Z,22.80
2023-06-22T22:51:52.024Z,22.80
2023-06-22T22:54:19.581Z,22.70
2023-06-22T22:56:47.001Z,22.70
2023-06-22T22:59:14.129Z,22.80
2023-06-22T23:01:41.672Z,22.70
2023-06-22T23:04:08.554Z,22.70
2023-06-22T23:06:35.356Z,22.70
2023-06-22T23:09:02.129Z,22.70
2023-06-22T23:11:29.025Z,22.70
2023-06-22T23:13:58.207Z,22.70
2023-06-22T23:16:27.461Z,22.70
2023-06-22T23:18:54.183Z,22.70
2023-06-22T23:21:20.980Z,22.70
2023-06-22T23:23:47.652Z,22.70
2023-06-22T23:26:15.647Z,22.70
2023-06-22T23:28:43.277Z,22.70
2023-06-22T23:31:10.257Z,22.60
2023-06-22T23:33:38.687Z,22.60
2023-06-22T23:36:06.216Z,22.60
2023-06-22T23:38:33.331Z,22.60
2023-06-22T23:41:00.264Z,22.60
2023-06-22T23:43:27.192Z,22.50
2023-06-22T23:45:56.031Z,22.50
2023-06-22T23:48:22.783Z,22.50
2023-06-22T23:50:50.010Z,22.50
2023-06-22T23:53:17.345Z,22.50
2023-06-22T23:55:44.669Z,22.40
2023-06-22T23:58:11.756Z,22.40
